Terminal Aerodrome Forecast
Issued by NWS

Home | Current Version | Previous Version | Graphics & Text | Print | Product List | Glossary On
Versions: 1 2 3 4 5 6 7 8 9 10 11 12 13 14 15 16 17 18
443
FTUS43 KTOP 192000 AAB
TAFMHK
TAF AMD
KMHK 192049Z 1921/2018 07011KT P6SM VCSH BKN050
     FM200200 05008KT 5SM -RA BR OVC030
     FM200600 03012KT 3SM RA BR OVC007
     FM201100 03012KT 5SM BR OVC008=

USA.gov is the U.S. government's official web portal to all federal, state and local government web resources and services.